This is the latest recevied weather packets stored in our database for station/object DM4XI-13. If no packets are shown the sender has not sent any weather packets the latest 1 day(s).
| Time | Temp. | Humidity | Pressure | Rain* | Wind** | Luminosity | Snow |
|---|---|---|---|---|---|---|---|
| 1778063957 | 18.33° C | 59% | 1004.9 hPa | 0 mm | 0.45 m/s, 168° | 507 W/m² | - |
| 1778063774 | 18.33° C | 58% | 1005 hPa | 0 mm | 1.79 m/s, 157° | 513 W/m² | - |
| 1778063591 | 18.33° C | 59% | 1004.9 hPa | 0 mm | 0.89 m/s, 208° | 554 W/m² | - |
| 1778063530 | 18.33° C | 60% | 1004.8 hPa | 0 mm | 2.68 m/s, 179° | 434 W/m² | - |
| 1778063469 | 18.33° C | 58% | 1005 hPa | 0 mm | 0.45 m/s, 185° | 318 W/m² | - |
| 1778063286 | 18.33° C | 58% | 1005 hPa | 0 mm | 0.89 m/s, 212° | 336 W/m² | - |
| 1778063225 | 18.33° C | 58% | 1005 hPa | 0 mm | 0.89 m/s, 181° | 347 W/m² | - |
| 1778062981 | 18.33° C | 57% | 1005 hPa | 0 mm | 0.89 m/s, 177° | 330 W/m² | - |
| 1778062859 | 18.33° C | 57% | 1004.7 hPa | 0 mm | 0 m/s | 319 W/m² | - |
| 1778062493 | 18.89° C | 56% | 1005 hPa | 0 mm | 0.45 m/s, 237° | 224 W/m² | - |
| 1778062432 | 18.89° C | 57% | 1004.9 hPa | 0 mm | 0.89 m/s, 289° | 315 W/m² | - |
| 1778062370 | 18.89° C | 56% | 1004.8 hPa | 0 mm | 0.45 m/s, 223° | 221 W/m² | - |
| 1778062310 | 18.89° C | 57% | 1004.9 hPa | 0 mm | 0 m/s | 192 W/m² | - |
| 1778062188 | 18.89° C | 58% | 1004.9 hPa | 0 mm | 0.45 m/s, 199° | 177 W/m² | - |
| 1778062005 | 18.33° C | 59% | 1004.8 hPa | 0 mm | 0 m/s | 295 W/m² | - |
| 1778061882 | 18.33° C | 58% | 1005 hPa | 0 mm | 0.45 m/s, 260° | 204 W/m² | - |
| 1778061700 | 17.78° C | 60% | 1005 hPa | 0 mm | 0.45 m/s, 205° | 181 W/m² | - |
| 1778061577 | 17.78° C | 62% | 1005 hPa | 0 mm | 0 m/s | 185 W/m² | - |
| 1778061516 | 17.78° C | 61% | 1005 hPa | 0 mm | 0 m/s | 200 W/m² | - |
| 1778061394 | 17.78° C | 60% | 1005 hPa | 0 mm | 0.89 m/s, 178° | 226 W/m² | - |
| 1778061333 | 17.78° C | 60% | 1005 hPa | 0 mm | 1.34 m/s, 189° | 238 W/m² | - |
| 1778061272 | 17.78° C | 60% | 1005.1 hPa | 0 mm | 1.34 m/s, 201° | 285 W/m² | - |
| 1778060906 | 18.89° C | 58% | 1005.3 hPa | 0 mm | 0.89 m/s, 60° | 465 W/m² | - |
| 1778060784 | 17.78° C | 63% | 1005.2 hPa | 0 mm | 0.45 m/s, 161° | 449 W/m² | - |
| 1778060723 | 17.78° C | 62% | 1005.2 hPa | 0 mm | 0.45 m/s, 162° | 571 W/m² | - |
* Rain latest hour (hover to see other rain measurements)
** Current wind speed in m/s (hover to see current wind gust speed)